createdAt,value
2019-05-29T00:00:09.889Z,95.10
2019-05-29T00:02:36.426Z,95.10
2019-05-29T00:05:08.036Z,95.00
2019-05-29T00:07:34.637Z,95.10
2019-05-29T00:10:00.911Z,95.10
2019-05-29T00:12:27.114Z,95.10
2019-05-29T00:15:01.619Z,95.10
2019-05-29T00:17:28.458Z,95.10
2019-05-29T00:19:56.130Z,95.10
2019-05-29T00:22:29.082Z,95.20
2019-05-29T00:25:12.481Z,95.20
2019-05-29T00:27:46.573Z,95.20
2019-05-29T00:33:20.105Z,95.30
2019-05-29T00:39:18.405Z,95.30
2019-05-29T00:44:57.078Z,95.20
2019-05-29T00:50:35.042Z,95.20
2019-05-29T00:53:55.256Z,95.10
2019-05-29T00:55:49.603Z,95.10
2019-05-29T00:58:26.112Z,94.90
2019-05-29T01:00:57.363Z,95.10
2019-05-29T01:03:23.785Z,95.20
2019-05-29T01:05:50.796Z,95.20
2019-05-29T01:08:22.487Z,95.20
2019-05-29T01:11:16.894Z,95.20
2019-05-29T01:25:39.083Z,95.20
2019-05-29T01:47:25.702Z,95.30
2019-05-29T01:56:29.265Z,95.20
2019-05-29T02:08:24.196Z,95.20
2019-05-29T02:10:54.495Z,95.20
2019-05-29T02:26:42.044Z,95.30
2019-05-29T02:37:52.321Z,95.40
2019-05-29T02:43:41.767Z,95.50
2019-05-29T02:46:15.431Z,95.50
2019-05-29T02:57:59.699Z,95.60
2019-05-29T03:00:54.473Z,95.60
2019-05-29T03:03:26.480Z,95.70
2019-05-29T03:05:57.402Z,95.60
2019-05-29T03:08:34.024Z,95.50
2019-05-29T03:10:56.778Z,95.50
2019-05-29T03:32:14.889Z,95.60
2019-05-29T03:35:00.688Z,95.60
2019-05-29T03:37:49.407Z,95.60
2019-05-29T03:46:29.799Z,95.70
2019-05-29T03:48:46.106Z,95.70
2019-05-29T03:51:12.560Z,96.10
2019-05-29T03:53:40.606Z,95.80
2019-05-29T03:56:07.836Z,95.80
2019-05-29T03:58:37.509Z,95.80
2019-05-29T04:01:04.204Z,95.90
2019-05-29T04:03:35.598Z,95.80
2019-05-29T04:06:04.563Z,95.80
2019-05-29T04:08:33.449Z,95.90
2019-05-29T04:11:00.952Z,95.90
2019-05-29T04:13:29.475Z,95.90
2019-05-29T04:15:59.767Z,95.90
2019-05-29T04:18:27.674Z,95.90
2019-05-29T04:20:56.907Z,95.90
2019-05-29T04:23:27.790Z,95.90
2019-05-29T04:25:56.975Z,95.80
2019-05-29T04:28:24.365Z,95.90
2019-05-29T04:30:50.762Z,95.80
2019-05-29T04:33:17.816Z,95.80
2019-05-29T04:35:45.239Z,95.90
2019-05-29T04:38:12.694Z,95.90
2019-05-29T04:40:40.239Z,95.90
2019-05-29T04:43:07.736Z,96.20
2019-05-29T04:45:36.023Z,95.90
2019-05-29T04:48:04.014Z,95.90
2019-05-29T04:50:31.383Z,95.90
2019-05-29T04:53:00.365Z,95.80
2019-05-29T04:55:28.626Z,95.80
2019-05-29T04:57:56.296Z,95.80
2019-05-29T05:00:24.247Z,95.80
2019-05-29T05:02:51.989Z,95.90
2019-05-29T05:05:19.883Z,95.80
2019-05-29T05:07:47.576Z,95.80
2019-05-29T05:10:25.581Z,95.80
2019-05-29T05:12:51.958Z,95.70
2019-05-29T05:15:18.192Z,95.70
2019-05-29T05:17:44.435Z,95.70
2019-05-29T05:20:11.126Z,95.60
2019-05-29T05:22:38.199Z,95.50
2019-05-29T05:25:05.082Z,95.40
2019-05-29T05:27:32.164Z,95.40
2019-05-29T05:29:58.514Z,95.40
2019-05-29T05:32:24.767Z,95.30
2019-05-29T05:34:51.018Z,95.30
2019-05-29T05:37:17.403Z,95.30
2019-05-29T05:39:43.714Z,95.30
2019-05-29T05:42:09.959Z,94.80
2019-05-29T05:44:37.070Z,94.70
2019-05-29T05:47:03.551Z,94.60
2019-05-29T05:49:31.176Z,94.70
2019-05-29T05:51:57.666Z,94.70
2019-05-29T05:54:23.897Z,94.70
2019-05-29T05:56:58.229Z,94.70
2019-05-29T05:59:24.607Z,94.60
2019-05-29T06:01:50.992Z,94.40
2019-05-29T06:04:17.614Z,94.30
2019-05-29T06:06:53.855Z,94.10
2019-05-29T06:09:20.927Z,94.10
2019-05-29T06:11:47.159Z,94.10
2019-05-29T06:14:17.601Z,94.10
2019-05-29T06:16:47.140Z,94.00
2019-05-29T06:19:13.549Z,94.10
2019-05-29T06:21:40.917Z,93.90
2019-05-29T06:24:20.673Z,94.00
2019-05-29T06:26:47.408Z,93.90
2019-05-29T06:29:14.031Z,93.90
2019-05-29T06:31:41.449Z,93.80
2019-05-29T06:34:09.600Z,93.80
2019-05-29T06:36:39.519Z,93.80
2019-05-29T06:39:27.121Z,93.80
2019-05-29T06:42:01.950Z,93.80
2019-05-29T06:44:28.713Z,93.80
2019-05-29T06:46:57.575Z,93.70
2019-05-29T06:49:33.908Z,93.70
2019-05-29T06:52:15.304Z,94.00
2019-05-29T06:54:51.220Z,94.10
2019-05-29T06:57:20.087Z,93.90
2019-05-29T06:59:54.669Z,93.40
2019-05-29T07:02:31.795Z,92.10
2019-05-29T07:11:06.716Z,90.50
2019-05-29T07:16:43.958Z,89.60
2019-05-29T07:21:31.335Z,88.70
2019-05-29T07:23:59.989Z,88.70
2019-05-29T07:29:29.955Z,88.10
2019-05-29T07:32:06.204Z,87.90
2019-05-29T07:34:56.727Z,87.80
2019-05-29T07:37:20.765Z,87.90
2019-05-29T07:39:58.832Z,87.60
2019-05-29T07:42:25.766Z,87.00
2019-05-29T07:44:52.244Z,87.10
2019-05-29T07:47:18.717Z,86.60
2019-05-29T07:49:48.357Z,86.60
2019-05-29T07:52:13.332Z,86.30
2019-05-29T07:54:41.790Z,86.50
2019-05-29T07:57:08.180Z,87.00
2019-05-29T07:59:34.499Z,86.50
2019-05-29T08:02:00.789Z,85.70
2019-05-29T08:04:27.009Z,85.30
2019-05-29T08:06:54.601Z,85.20
2019-05-29T08:09:21.086Z,85.50
2019-05-29T08:11:47.748Z,85.60
2019-05-29T08:14:14.215Z,85.40
2019-05-29T08:16:43.937Z,85.70
2019-05-29T08:19:11.877Z,85.30
2019-05-29T08:21:38.332Z,85.20
2019-05-29T08:24:06.642Z,85.20
2019-05-29T08:26:33.053Z,84.20
2019-05-29T08:31:59.075Z,84.50
2019-05-29T08:34:40.882Z,84.30
2019-05-29T08:40:19.036Z,84.40
2019-05-29T08:50:19.890Z,83.90
2019-05-29T09:06:27.176Z,80.10
2019-05-29T09:11:11.540Z,79.30
2019-05-29T09:13:48.354Z,79.80
2019-05-29T09:16:19.735Z,79.30
2019-05-29T09:19:06.479Z,78.80
2019-05-29T09:21:36.113Z,79.10
2019-05-29T09:24:02.973Z,77.60
2019-05-29T09:26:29.761Z,75.60
2019-05-29T09:28:56.227Z,75.50
2019-05-29T09:31:23.935Z,74.90
2019-05-29T09:33:55.118Z,74.80
2019-05-29T09:36:24.876Z,74.80
2019-05-29T09:38:51.818Z,73.80
2019-05-29T09:41:21.713Z,72.60
2019-05-29T09:44:00.367Z,72.70
2019-05-29T09:46:41.990Z,72.40
2019-05-29T09:49:23.875Z,72.40
2019-05-29T09:52:16.071Z,71.90
2019-05-29T09:54:49.285Z,70.60
2019-05-29T09:57:28.412Z,71.30
2019-05-29T09:59:59.879Z,71.20
2019-05-29T10:02:46.757Z,71.20
2019-05-29T10:05:17.157Z,72.10
2019-05-29T10:07:54.538Z,72.20
2019-05-29T10:10:26.383Z,73.30
2019-05-29T10:12:53.525Z,72.80
2019-05-29T10:15:23.463Z,73.70
2019-05-29T10:17:51.026Z,73.20
2019-05-29T10:20:23.013Z,73.60
2019-05-29T10:22:55.484Z,73.40
2019-05-29T10:25:29.135Z,73.40
2019-05-29T10:28:00.330Z,74.40
2019-05-29T10:30:29.102Z,73.90
2019-05-29T10:32:57.012Z,74.40
2019-05-29T10:38:27.801Z,75.60
2019-05-29T10:41:05.180Z,75.80
2019-05-29T10:43:34.071Z,75.00
2019-05-29T10:45:54.474Z,71.50
2019-05-29T10:48:23.769Z,74.40
2019-05-29T10:50:52.557Z,76.10
2019-05-29T10:53:21.170Z,76.80
2019-05-29T10:55:52.594Z,77.30
2019-05-29T10:58:23.332Z,76.70
2019-05-29T11:00:51.221Z,77.20
2019-05-29T11:03:17.731Z,77.10
2019-05-29T11:05:49.570Z,77.40
2019-05-29T11:08:16.379Z,76.70
2019-05-29T11:10:42.604Z,73.30
2019-05-29T11:13:10.914Z,71.20
2019-05-29T11:15:38.858Z,72.60
2019-05-29T11:18:05.300Z,71.70
2019-05-29T11:20:41.848Z,69.90
2019-05-29T11:23:10.104Z,68.50
2019-05-29T11:25:42.483Z,68.20
2019-05-29T11:28:12.896Z,68.80
2019-05-29T11:30:40.745Z,69.40
2019-05-29T11:33:15.389Z,68.20
2019-05-29T11:39:32.444Z,68.20
2019-05-29T11:44:59.589Z,68.70
2019-05-29T11:47:30.616Z,65.20
2019-05-29T11:56:02.055Z,61.90
2019-05-29T11:58:48.776Z,64.50
2019-05-29T12:01:49.828Z,65.20
2019-05-29T12:04:26.271Z,64.60
2019-05-29T12:06:59.659Z,64.30
2019-05-29T12:19:04.564Z,66.70
2019-05-29T12:40:13.153Z,62.60
2019-05-29T12:45:37.447Z,64.30
2019-05-29T12:48:20.297Z,63.40
2019-05-29T12:53:45.578Z,66.00
2019-05-29T12:56:20.015Z,67.50
2019-05-29T12:58:58.257Z,69.50
2019-05-29T13:04:10.068Z,71.90
2019-05-29T13:06:37.782Z,71.90
2019-05-29T13:09:07.129Z,73.70
2019-05-29T13:11:35.597Z,74.30
2019-05-29T13:14:04.693Z,76.10
2019-05-29T13:16:34.026Z,73.50
2019-05-29T13:19:01.030Z,74.80
2019-05-29T13:21:27.559Z,76.50
2019-05-29T13:23:59.753Z,74.90
2019-05-29T13:26:24.520Z,75.90
2019-05-29T13:28:50.908Z,73.90
2019-05-29T13:31:17.226Z,73.30
2019-05-29T13:33:43.544Z,74.50
2019-05-29T13:36:16.017Z,75.30
2019-05-29T13:38:53.714Z,74.10
2019-05-29T13:41:29.501Z,74.20
2019-05-29T13:44:06.991Z,74.70
2019-05-29T13:46:33.273Z,75.40
2019-05-29T13:49:27.953Z,76.10
2019-05-29T13:52:09.068Z,76.80
2019-05-29T13:54:50.668Z,78.10
2019-05-29T14:00:32.459Z,76.20
2019-05-29T14:03:52.213Z,77.30
2019-05-29T14:05:31.365Z,76.90
2019-05-29T14:08:07.014Z,77.70
2019-05-29T14:10:38.500Z,78.50
2019-05-29T14:13:10.858Z,76.60
2019-05-29T14:15:39.980Z,77.60
2019-05-29T14:18:24.532Z,76.60
2019-05-29T14:20:55.661Z,76.50
2019-05-29T14:23:27.680Z,76.70
2019-05-29T14:33:06.823Z,77.40
2019-05-29T14:40:07.946Z,77.60
2019-05-29T14:45:31.381Z,76.00
2019-05-29T14:51:20.483Z,73.60
2019-05-29T14:53:50.265Z,75.20
2019-05-29T14:56:37.690Z,75.70
2019-05-29T14:59:14.409Z,76.20
2019-05-29T15:02:00.778Z,76.80
2019-05-29T15:07:32.428Z,76.80
2019-05-29T15:10:29.968Z,75.90
2019-05-29T15:19:28.561Z,73.40
2019-05-29T15:25:12.419Z,70.10
2019-05-29T15:34:12.418Z,70.80
2019-05-29T15:36:33.906Z,71.60
2019-05-29T15:39:12.778Z,71.60
2019-05-29T15:41:50.357Z,71.80
2019-05-29T15:48:30.226Z,72.40
2019-05-29T15:50:18.193Z,73.10
2019-05-29T15:52:45.857Z,74.20
2019-05-29T15:55:29.485Z,73.40
2019-05-29T15:57:40.848Z,74.40
2019-05-29T16:00:11.418Z,74.60
2019-05-29T16:02:37.855Z,75.40
2019-05-29T16:05:06.024Z,75.60
2019-05-29T16:07:32.378Z,77.10
2019-05-29T16:09:58.622Z,75.60
2019-05-29T16:12:24.961Z,76.40
2019-05-29T16:14:51.976Z,76.40
2019-05-29T16:17:19.369Z,75.70
2019-05-29T16:19:45.795Z,74.00
2019-05-29T16:22:12.257Z,74.40
2019-05-29T16:24:38.516Z,75.60
2019-05-29T16:29:59.619Z,76.00
2019-05-29T16:32:25.986Z,76.10
2019-05-29T16:34:52.550Z,76.70
2019-05-29T16:37:19.365Z,76.70
2019-05-29T16:39:51.724Z,77.90
2019-05-29T16:42:18.156Z,76.60
2019-05-29T16:44:44.842Z,76.60
2019-05-29T16:47:12.479Z,77.20
2019-05-29T16:49:39.092Z,77.80
2019-05-29T16:52:05.387Z,77.60
2019-05-29T16:54:31.636Z,77.10
2019-05-29T16:56:57.881Z,77.20
2019-05-29T16:59:25.297Z,77.60
2019-05-29T17:02:11.582Z,77.80
2019-05-29T17:04:41.999Z,77.40
2019-05-29T17:07:12.069Z,77.30
2019-05-29T17:09:38.356Z,77.20
2019-05-29T17:12:04.748Z,77.10
2019-05-29T17:14:31.035Z,76.10
2019-05-29T17:16:57.593Z,76.20
2019-05-29T17:19:25.322Z,75.60
2019-05-29T17:21:52.159Z,75.60
2019-05-29T17:24:37.703Z,76.30
2019-05-29T17:27:07.096Z,76.40
2019-05-29T17:29:33.503Z,76.10
2019-05-29T17:31:59.762Z,76.90
2019-05-29T17:34:26.086Z,77.00
2019-05-29T17:36:52.464Z,76.40
2019-05-29T17:39:19.925Z,77.00
2019-05-29T17:41:48.678Z,76.80
2019-05-29T17:44:15.491Z,77.20
2019-05-29T17:46:49.114Z,76.00
2019-05-29T17:49:17.910Z,76.00
2019-05-29T17:51:44.418Z,76.00
2019-05-29T17:54:10.769Z,76.20
2019-05-29T17:56:39.635Z,76.40
2019-05-29T17:59:07.972Z,76.00
2019-05-29T18:01:37.236Z,76.20
2019-05-29T18:04:07.944Z,76.00
2019-05-29T18:06:36.677Z,75.70
2019-05-29T18:09:27.985Z,76.10
2019-05-29T18:11:55.639Z,76.70
2019-05-29T18:14:23.320Z,76.90
2019-05-29T18:17:03.137Z,76.60
2019-05-29T18:19:30.111Z,76.00
2019-05-29T18:21:57.989Z,76.10
2019-05-29T18:24:25.976Z,77.20
2019-05-29T18:27:05.170Z,77.20
2019-05-29T18:29:43.802Z,76.80
2019-05-29T18:32:11.241Z,76.60
2019-05-29T18:34:38.199Z,76.70
2019-05-29T18:37:05.256Z,77.20
2019-05-29T18:39:36.229Z,77.70
2019-05-29T18:42:03.232Z,77.80
2019-05-29T18:44:33.356Z,77.30
2019-05-29T18:47:01.156Z,77.30
2019-05-29T18:49:37.795Z,77.30
2019-05-29T18:52:09.541Z,77.50
2019-05-29T18:54:40.464Z,77.80
2019-05-29T18:57:16.108Z,78.30
2019-05-29T18:59:45.938Z,78.60
2019-05-29T19:02:15.919Z,78.60
2019-05-29T19:04:45.414Z,77.80
2019-05-29T19:07:14.975Z,78.00
2019-05-29T19:09:49.709Z,78.50
2019-05-29T19:12:19.936Z,78.50
2019-05-29T19:14:49.742Z,78.70
2019-05-29T19:17:17.181Z,78.80
2019-05-29T19:19:45.058Z,78.80
2019-05-29T19:22:16.168Z,78.90
2019-05-29T19:24:45.109Z,78.40
2019-05-29T19:27:29.849Z,77.70
2019-05-29T19:29:44.464Z,77.90
2019-05-29T19:32:12.699Z,78.40
2019-05-29T19:34:41.143Z,78.50
2019-05-29T19:37:10.136Z,78.90
2019-05-29T19:39:38.669Z,79.50
2019-05-29T19:42:11.697Z,79.40
2019-05-29T19:44:40.689Z,78.90
2019-05-29T19:47:14.598Z,78.40
2019-05-29T19:49:51.648Z,79.00
2019-05-29T19:52:22.212Z,78.60
2019-05-29T19:54:52.915Z,78.70
2019-05-29T19:57:25.939Z,77.80
2019-05-29T19:59:56.802Z,77.50
2019-05-29T20:02:28.506Z,77.50
2019-05-29T20:05:09.464Z,77.40
2019-05-29T20:07:38.704Z,79.00
2019-05-29T20:10:14.289Z,78.70
2019-05-29T20:12:48.032Z,77.10
2019-05-29T20:15:16.902Z,77.00
2019-05-29T20:17:48.325Z,77.30
2019-05-29T20:20:20.614Z,78.10
2019-05-29T20:22:53.727Z,78.10
2019-05-29T20:25:26.431Z,78.10
2019-05-29T20:28:05.870Z,78.10
2019-05-29T20:30:28.191Z,78.20
2019-05-29T20:32:59.998Z,79.00
2019-05-29T20:35:32.960Z,79.80
2019-05-29T20:38:06.815Z,80.20
2019-05-29T20:40:35.149Z,80.70
2019-05-29T20:43:05.639Z,80.90
2019-05-29T20:45:35.703Z,80.90
2019-05-29T20:48:04.802Z,81.00
2019-05-29T20:50:40.331Z,81.10
2019-05-29T20:53:08.155Z,81.10
2019-05-29T20:55:35.919Z,81.40
2019-05-29T20:58:21.545Z,81.40
2019-05-29T21:00:36.052Z,81.50
2019-05-29T21:03:04.194Z,81.90
2019-05-29T21:05:34.518Z,81.90
2019-05-29T21:08:03.091Z,82.40
2019-05-29T21:10:33.105Z,82.60
2019-05-29T21:13:10.206Z,82.80
2019-05-29T21:15:37.565Z,82.90
2019-05-29T21:18:04.138Z,83.20
2019-05-29T21:20:30.690Z,83.40
2019-05-29T21:25:54.339Z,83.80
2019-05-29T21:31:28.007Z,84.00
2019-05-29T21:34:01.067Z,84.60
2019-05-29T21:36:30.659Z,84.80
2019-05-29T21:38:57.052Z,85.50
2019-05-29T21:41:29.750Z,84.90
2019-05-29T21:44:03.603Z,85.10
2019-05-29T21:46:30.194Z,85.70
2019-05-29T21:48:56.406Z,85.70
2019-05-29T21:51:22.719Z,85.90
2019-05-29T21:53:49.054Z,86.30
2019-05-29T21:56:15.438Z,87.00
2019-05-29T21:58:58.523Z,86.50
2019-05-29T22:01:11.379Z,86.60
2019-05-29T22:03:38.322Z,87.10
2019-05-29T22:06:05.734Z,87.40
2019-05-29T22:08:34.229Z,87.50
2019-05-29T22:11:01.791Z,87.60
2019-05-29T22:13:29.626Z,87.60
2019-05-29T22:15:56.871Z,87.90
2019-05-29T22:18:23.750Z,88.10
2019-05-29T22:20:51.054Z,88.20
2019-05-29T22:23:18.909Z,88.30
2019-05-29T22:25:45.350Z,88.50
2019-05-29T22:28:15.857Z,88.60
2019-05-29T22:30:42.581Z,88.90
2019-05-29T22:33:09.728Z,89.00
2019-05-29T22:35:36.139Z,89.10
2019-05-29T22:38:04.969Z,89.20
2019-05-29T22:40:32.080Z,89.30
2019-05-29T22:43:00.036Z,89.10
2019-05-29T22:45:28.933Z,89.10
2019-05-29T22:47:59.809Z,89.10
2019-05-29T22:50:26.920Z,89.20
2019-05-29T22:52:55.860Z,89.10
2019-05-29T22:55:23.656Z,89.20
2019-05-29T22:57:54.449Z,89.10
2019-05-29T23:00:22.751Z,89.00
2019-05-29T23:02:50.498Z,88.70
2019-05-29T23:05:19.430Z,88.60
2019-05-29T23:07:46.719Z,88.60
2019-05-29T23:10:21.379Z,88.60
2019-05-29T23:12:48.633Z,89.20
2019-05-29T23:15:15.866Z,89.00
2019-05-29T23:17:42.977Z,89.30
2019-05-29T23:20:10.161Z,89.30
2019-05-29T23:22:37.422Z,89.70
2019-05-29T23:25:05.321Z,89.70
2019-05-29T23:27:31.569Z,89.80
2019-05-29T23:29:58.984Z,89.80
2019-05-29T23:32:25.485Z,90.00
2019-05-29T23:34:52.967Z,90.10
2019-05-29T23:37:19.579Z,90.10
2019-05-29T23:39:45.855Z,90.30
2019-05-29T23:42:12.042Z,90.20
2019-05-29T23:44:38.275Z,90.30
2019-05-29T23:47:04.518Z,90.30
2019-05-29T23:49:30.780Z,90.30
2019-05-29T23:52:02.837Z,90.40
2019-05-29T23:54:28.939Z,90.50
2019-05-29T23:56:55.835Z,90.40
2019-05-29T23:59:22.160Z,90.40
